Time;durP1;ratioP1;P1;durP2;ratioP2;P2;SDS_P1;SDS_P2;PMS_P1;PMS_P2;Temp;Humidity;BMP_temperature;BMP_pressure;BME280_temperature;BME280_humidity;BME280_pressure;Samples;Min_cycle;Max_cycle;Signal;HPM_P1;HPM_P2
2023/08/13 00:00:28;;;;;;;3.93;3.20;;;19.60;99.90;;;;;;5031982;28;20484;-78
2023/08/13 00:02:54;;;;;;;4.57;3.20;;;19.50;99.90;;;;;;5032658;28;20543;-77
2023/08/13 00:05:21;;;;;;;3.30;2.80;;;19.50;99.90;;;;;;5032293;28;20457;-78
2023/08/13 00:07:48;;;;;;;4.57;2.90;;;19.50;99.90;;;;;;5032155;28;20485;-77
2023/08/13 00:10:15;;;;;;;4.60;2.47;;;19.40;99.90;;;;;;5032270;28;20473;-78
2023/08/13 00:12:43;;;;;;;3.40;2.50;;;19.30;99.90;;;;;;5031084;28;20976;-78
2023/08/13 00:15:11;;;;;;;2.80;2.60;;;19.20;99.90;;;;;;5032220;28;20480;-78
2023/08/13 00:17:38;;;;;;;2.50;2.30;;;19.10;99.90;;;;;;5031546;28;20462;-78
2023/08/13 00:20:07;;;;;;;7.30;2.30;;;19.00;99.90;;;;;;5031606;28;20882;-77
2023/08/13 00:22:34;;;;;;;5.30;2.30;;;18.90;99.90;;;;;;5032150;28;20461;-78
2023/08/13 00:25:00;;;;;;;3.30;2.80;;;18.90;99.90;;;;;;5032392;28;20469;-78
2023/08/13 00:27:27;;;;;;;5.60;2.53;;;18.90;99.90;;;;;;5031767;28;20491;-78
2023/08/13 00:29:55;;;;;;;5.60;2.23;;;18.90;99.90;;;;;;5031567;28;21063;-77
2023/08/13 00:32:22;;;;;;;3.93;2.30;;;18.90;99.90;;;;;;5031130;28;20461;-78
2023/08/13 00:34:49;;;;;;;2.97;2.67;;;18.80;99.90;;;;;;5031324;28;20453;-78
2023/08/13 00:37:16;;;;;;;7.43;2.40;;;18.70;99.90;;;;;;5032020;28;20461;-77
2023/08/13 00:39:43;;;;;;;6.60;2.33;;;18.70;99.90;;;;;;5031661;28;20566;-77
2023/08/13 00:42:10;;;;;;;3.40;3.10;;;18.70;99.90;;;;;;5031424;28;20469;-77
2023/08/13 00:44:36;;;;;;;3.37;3.00;;;18.60;99.90;;;;;;5031393;28;20807;-78
2023/08/13 00:47:05;;;;;;;10.67;3.00;;;18.60;99.90;;;;;;5031353;28;20512;-78
2023/08/13 00:49:32;;;;;;;6.73;2.50;;;18.60;99.90;;;;;;5031491;28;20501;-78
2023/08/13 00:51:58;;;;;;;4.70;2.90;;;18.60;99.90;;;;;;5031528;28;20473;-78
2023/08/13 00:54:25;;;;;;;4.67;2.60;;;18.60;99.90;;;;;;5031035;28;20457;-78
2023/08/13 00:56:53;;;;;;;4.90;2.67;;;18.60;99.90;;;;;;5031766;28;20461;-79
2023/08/13 00:59:21;;;;;;;3.83;3.03;;;18.50;99.90;;;;;;5030835;28;20479;-78
2023/08/13 01:01:48;;;;;;;4.03;2.77;;;18.50;99.90;;;;;;5030834;28;20875;-77
2023/08/13 01:04:16;;;;;;;8.80;3.07;;;18.40;99.90;;;;;;5030655;28;20454;-78
2023/08/13 01:06:52;;;;;;;5.50;3.00;;;18.30;99.90;;;;;;5030630;28;20945;-78
2023/08/13 01:09:28;;;;;;;4.00;3.00;;;18.30;99.90;;;;;;5030978;28;20492;-78
2023/08/13 01:12:03;;;;;;;5.60;2.53;;;18.30;99.90;;;;;;5030481;28;20463;-78
2023/08/13 01:14:36;;;;;;;3.40;2.27;;;18.30;99.90;;;;;;5030701;28;20461;-78
2023/08/13 01:17:04;;;;;;;5.63;2.73;;;18.20;99.90;;;;;;5030611;28;20449;-78
2023/08/13 01:19:32;;;;;;;5.17;2.70;;;18.20;99.90;;;;;;5030336;28;20507;-78
2023/08/13 01:21:59;;;;;;;3.40;2.53;;;18.20;99.90;;;;;;5023879;28;20883;-78
2023/08/13 01:24:27;;;;;;;7.67;3.10;;;18.10;99.90;;;;;;5031356;28;20493;-77
2023/08/13 01:27:06;;;;;;;9.23;3.47;;;18.00;99.90;;;;;;5026829;28;20457;-77
2023/08/13 01:29:38;;;;;;;8.00;4.77;;;17.90;99.90;;;;;;5030229;28;20986;-78
2023/08/13 01:32:11;;;;;;;5.07;4.43;;;17.90;99.90;;;;;;5024585;28;20508;-78
2023/08/13 01:34:39;;;;;;;5.50;4.50;;;17.80;99.90;;;;;;5030505;28;20457;-77
2023/08/13 01:37:06;;;;;;;10.47;4.73;;;17.90;99.90;;;;;;5030524;28;21006;-77
2023/08/13 01:39:34;;;;;;;4.50;4.10;;;17.70;99.90;;;;;;5027649;28;20473;-77
2023/08/13 01:42:01;;;;;;;4.67;4.27;;;17.70;99.90;;;;;;5030775;28;20454;-77
2023/08/13 01:44:27;;;;;;;8.60;4.00;;;17.70;99.90;;;;;;5030523;28;20469;-77
2023/08/13 01:46:54;;;;;;;10.93;3.97;;;17.70;99.90;;;;;;5028318;28;20449;-77
2023/08/13 01:49:21;;;;;;;5.67;3.47;;;17.70;99.90;;;;;;5029972;28;20489;-77
2023/08/13 01:51:48;;;;;;;5.77;3.90;;;17.70;99.90;;;;;;5030242;28;21020;-77
2023/08/13 01:54:14;;;;;;;6.63;3.80;;;17.80;99.90;;;;;;5029971;28;20457;-77
2023/08/13 01:56:42;;;;;;;6.17;3.53;;;17.60;99.90;;;;;;5030589;28;20461;-77
2023/08/13 01:59:09;;;;;;;10.33;3.47;;;17.60;99.90;;;;;;5029913;28;20473;-78
2023/08/13 02:01:35;;;;;;;4.43;4.03;;;17.60;99.90;;;;;;5030262;28;20462;-77
2023/08/13 02:04:02;;;;;;;7.00;4.20;;;17.60;99.90;;;;;;5030038;28;20457;-77
2023/08/13 02:06:30;;;;;;;7.50;3.70;;;17.60;99.90;;;;;;5029973;28;20457;-77
2023/08/13 02:08:56;;;;;;;8.60;4.03;;;17.60;99.90;;;;;;5029853;28;20489;-77
2023/08/13 02:11:23;;;;;;;7.07;3.80;;;17.60;99.90;;;;;;5030042;28;20457;-77
2023/08/13 02:13:51;;;;;;;5.43;4.13;;;17.60;99.90;;;;;;5030182;28;20461;-77
2023/08/13 02:16:18;;;;;;;6.77;3.80;;;17.60;99.90;;;;;;5025201;28;20462;-77
2023/08/13 02:18:44;;;;;;;6.60;4.00;;;17.60;99.90;;;;;;5028694;28;20473;-77
2023/08/13 02:21:11;;;;;;;4.03;3.50;;;17.60;99.90;;;;;;5029376;28;20508;-77
2023/08/13 02:23:38;;;;;;;7.13;3.73;;;17.60;99.90;;;;;;5029721;28;20461;-77
2023/08/13 02:26:04;;;;;;;3.73;3.43;;;17.60;99.90;;;;;;5030364;28;20858;-77
2023/08/13 02:28:31;;;;;;;9.53;3.87;;;17.60;99.90;;;;;;5033932;28;20547;-77
2023/08/13 02:30:59;;;;;;;5.97;3.17;;;17.60;99.90;;;;;;5033915;28;20530;-77
2023/08/13 02:33:25;;;;;;;3.60;3.30;;;17.60;99.90;;;;;;5030265;28;20453;-77
2023/08/13 02:35:52;;;;;;;3.70;3.40;;;17.60;99.90;;;;;;5033985;28;20457;-77
2023/08/13 02:38:19;;;;;;;4.07;3.50;;;17.60;99.90;;;;;;5034054;28;20515;-77
2023/08/13 02:40:45;;;;;;;4.30;3.40;;;17.60;99.90;;;;;;5033323;28;21025;-77
2023/08/13 02:43:12;;;;;;;10.03;3.40;;;17.60;99.90;;;;;;5033986;28;20461;-77
2023/08/13 02:45:39;;;;;;;4.70;3.23;;;17.60;99.90;;;;;;5034063;28;20453;-77
2023/08/13 02:48:07;;;;;;;5.33;3.43;;;17.60;99.90;;;;;;5033620;28;20488;-77
2023/08/13 02:50:34;;;;;;;7.23;3.83;;;17.60;99.90;;;;;;5033419;28;20508;-78
2023/08/13 02:53:01;;;;;;;8.83;3.97;;;17.60;99.90;;;;;;5033060;28;20457;-78
2023/08/13 02:55:28;;;;;;;11.80;3.47;;;17.60;99.90;;;;;;5033768;28;20463;-77
2023/08/13 02:57:54;;;;;;;6.13;4.00;;;17.50;99.90;;;;;;5033790;28;20457;-77
2023/08/13 03:00:21;;;;;;;9.70;3.30;;;17.50;99.90;;;;;;5033406;28;20845;-77
2023/08/13 03:02:48;;;;;;;4.20;3.30;;;17.70;99.90;;;;;;5033015;28;20560;-78
2023/08/13 03:05:16;;;;;;;7.40;3.70;;;17.50;99.90;;;;;;5033410;28;20511;-77
2023/08/13 03:07:43;;;;;;;4.80;3.90;;;17.50;99.90;;;;;;5033457;28;20499;-78
2023/08/13 03:10:10;;;;;;;6.67;4.27;;;17.50;99.90;;;;;;5033172;28;20489;-77
2023/08/13 03:12:37;;;;;;;5.60;3.43;;;17.50;99.90;;;;;;5033687;28;20519;-77
2023/08/13 03:15:04;;;;;;;5.23;3.70;;;17.50;99.90;;;;;;5032770;28;20457;-77
2023/08/13 03:17:31;;;;;;;8.43;3.70;;;17.50;99.90;;;;;;5032877;28;20523;-77
2023/08/13 03:19:59;;;;;;;4.30;3.90;;;17.50;99.90;;;;;;5032340;28;20469;-77
2023/08/13 03:22:27;;;;;;;9.73;3.90;;;17.50;99.90;;;;;;5033436;28;20540;-77
2023/08/13 03:24:53;;;;;;;3.80;3.37;;;17.50;99.90;;;;;;5033159;28;20949;-77
2023/08/13 03:27:20;;;;;;;3.93;2.97;;;17.40;99.90;;;;;;5033338;28;20518;-77
2023/08/13 03:29:47;;;;;;;4.67;3.50;;;17.40;99.90;;;;;;5032615;28;20493;-77
2023/08/13 03:32:13;;;;;;;4.53;3.70;;;17.30;99.90;;;;;;5032862;28;20469;-77
2023/08/13 03:34:41;;;;;;;8.80;3.30;;;17.40;99.90;;;;;;5032559;28;20461;-77
2023/08/13 03:37:08;;;;;;;5.47;3.30;;;17.30;99.90;;;;;;5032572;28;20495;-77
2023/08/13 03:39:36;;;;;;;9.40;3.40;;;17.30;99.90;;;;;;5032779;28;20524;-77
2023/08/13 03:42:02;;;;;;;4.10;3.10;;;17.30;99.90;;;;;;5032971;28;20458;-77
2023/08/13 03:44:29;;;;;;;7.00;3.30;;;17.30;99.90;;;;;;5032749;28;20872;-78
2023/08/13 03:46:55;;;;;;;8.07;3.43;;;17.20;99.90;;;;;;5032433;28;20445;-77
2023/08/13 03:49:22;;;;;;;4.30;3.53;;;17.30;99.90;;;;;;5032089;28;20550;-77
2023/08/13 03:51:49;;;;;;;3.57;3.27;;;17.20;99.90;;;;;;5032938;28;20449;-77
2023/08/13 03:54:15;;;;;;;6.37;3.60;;;17.20;99.90;;;;;;5032185;28;20504;-77
2023/08/13 03:56:43;;;;;;;8.37;3.30;;;17.20;99.90;;;;;;5032718;28;20477;-77
2023/08/13 03:59:10;;;;;;;10.90;4.60;;;17.20;99.90;;;;;;5029657;28;21125;-77
2023/08/13 04:01:37;;;;;;;8.80;3.93;;;17.20;99.90;;;;;;5032418;28;20453;-77
2023/08/13 04:04:04;;;;;;;10.10;4.80;;;17.20;99.90;;;;;;5032649;28;20511;-77
2023/08/13 04:06:30;;;;;;;5.10;4.07;;;17.10;99.90;;;;;;5032464;28;20512;-77
2023/08/13 04:08:57;;;;;;;7.40;4.13;;;17.10;99.90;;;;;;5031754;28;21062;-77
2023/08/13 04:11:24;;;;;;;10.87;4.27;;;17.10;99.90;;;;;;5032317;28;20516;-77
2023/08/13 04:13:51;;;;;;;7.20;4.20;;;17.00;99.90;;;;;;5031850;28;20464;-77
2023/08/13 04:16:18;;;;;;;6.23;4.67;;;17.00;99.90;;;;;;5031787;28;20508;-77
2023/08/13 04:18:45;;;;;;;5.47;4.93;;;17.00;99.90;;;;;;5031087;28;20473;-77
2023/08/13 04:21:11;;;;;;;9.10;5.90;;;17.00;99.90;;;;;;5025631;28;20826;-77
2023/08/13 04:23:38;;;;;;;10.83;5.30;;;17.00;99.90;;;;;;5031829;28;20519;-77
2023/08/13 04:26:05;;;;;;;7.57;5.63;;;17.10;99.90;;;;;;5031980;28;20469;-77
2023/08/13 04:28:31;;;;;;;8.10;5.87;;;17.00;99.90;;;;;;5032017;28;20432;-77
2023/08/13 04:30:59;;;;;;;15.43;6.27;;;17.00;99.90;;;;;;5030785;28;20464;-77
2023/08/13 04:33:26;;;;;;;9.63;6.90;;;17.00;99.90;;;;;;5031737;28;20453;-77
2023/08/13 04:35:53;;;;;;;10.67;7.10;;;17.00;99.90;;;;;;5031564;28;20461;-77
2023/08/13 04:38:20;;;;;;;12.80;6.17;;;17.00;99.90;;;;;;5031066;28;20489;-77
2023/08/13 04:40:47;;;;;;;10.40;6.50;;;16.90;99.90;;;;;;5031303;28;20516;-77
2023/08/13 04:43:14;;;;;;;10.77;6.80;;;16.90;99.90;;;;;;5031993;28;20457;-77
2023/08/13 04:45:41;;;;;;;10.50;6.63;;;16.90;99.90;;;;;;5031550;28;20461;-77
2023/08/13 04:48:09;;;;;;;12.50;7.00;;;16.90;99.90;;;;;;5031412;28;20600;-77
2023/08/13 04:50:35;;;;;;;10.73;7.73;;;16.90;99.90;;;;;;5029941;28;20497;-77
2023/08/13 04:53:02;;;;;;;10.10;7.60;;;16.90;99.90;;;;;;5030802;28;20560;-77
2023/08/13 04:55:29;;;;;;;15.70;7.83;;;16.90;99.90;;;;;;5031213;28;20808;-77
2023/08/13 04:57:55;;;;;;;9.23;8.23;;;17.00;99.90;;;;;;5031672;28;20473;-77
2023/08/13 05:00:22;;;;;;;9.77;7.73;;;17.00;99.90;;;;;;5030902;28;20499;-77
2023/08/13 05:02:48;;;;;;;8.97;7.47;;;17.00;99.90;;;;;;5030403;28;20457;-77
2023/08/13 05:05:16;;;;;;;10.23;7.20;;;17.00;99.90;;;;;;5031407;28;20461;-77
2023/08/13 05:07:43;;;;;;;10.73;7.30;;;17.10;99.90;;;;;;5031282;28;20457;-77
2023/08/13 05:10:10;;;;;;;14.20;6.80;;;17.10;99.90;;;;;;5030838;28;20493;-77
2023/08/13 05:12:36;;;;;;;9.77;6.07;;;17.10;99.90;;;;;;5031170;28;20471;-77
2023/08/13 05:15:04;;;;;;;7.30;6.53;;;17.20;99.90;;;;;;5030975;28;20457;-77
2023/08/13 05:17:31;;;;;;;7.33;6.63;;;17.20;99.90;;;;;;5030999;28;20553;-77
2023/08/13 05:19:58;;;;;;;10.13;5.93;;;17.20;99.90;;;;;;5030321;28;21066;-77
2023/08/13 05:22:26;;;;;;;6.40;5.90;;;17.20;99.90;;;;;;5030650;28;20519;-72
2023/08/13 05:24:52;;;;;;;6.40;5.90;;;17.30;99.90;;;;;;5030579;28;20482;-75
2023/08/13 05:27:19;;;;;;;5.90;5.40;;;17.40;99.90;;;;;;5030901;28;20453;-75
2023/08/13 05:29:45;;;;;;;6.40;5.70;;;17.40;99.90;;;;;;5030128;28;21026;-75
2023/08/13 05:32:13;;;;;;;9.90;6.40;;;17.50;99.90;;;;;;5029618;28;20550;-76
2023/08/13 05:34:40;;;;;;;10.03;5.93;;;17.60;99.90;;;;;;5030485;28;20464;-75
2023/08/13 05:37:06;;;;;;;6.77;5.10;;;17.60;99.90;;;;;;5030761;28;20500;-75
2023/08/13 05:39:34;;;;;;;6.67;5.27;;;17.60;99.90;;;;;;5029617;28;20913;-72
2023/08/13 05:42:02;;;;;;;9.70;4.40;;;17.60;99.90;;;;;;5030206;28;20457;-70
2023/08/13 05:44:29;;;;;;;13.53;5.90;;;17.70;99.90;;;;;;5031052;28;20849;-69
2023/08/13 05:46:55;;;;;;;11.60;5.07;;;17.80;99.90;;;;;;5030408;28;20949;-69
2023/08/13 05:49:22;;;;;;;5.63;4.87;;;18.00;99.90;;;;;;5030722;28;20497;-69
2023/08/13 05:51:49;;;;;;;6.10;5.33;;;18.10;99.90;;;;;;5030405;28;20520;-70
2023/08/13 05:54:16;;;;;;;13.03;8.17;;;18.20;99.90;;;;;;5029967;28;20496;-69
2023/08/13 05:56:44;;;;;;;8.53;6.57;;;18.30;99.90;;;;;;5030518;28;20867;-68
2023/08/13 05:59:10;;;;;;;10.70;7.47;;;18.40;99.90;;;;;;5030050;28;20473;-69
2023/08/13 06:01:37;;;;;;;10.60;7.97;;;18.50;99.90;;;;;;5030589;28;20464;-69
2023/08/13 06:04:04;;;;;;;15.90;8.37;;;18.60;99.90;;;;;;5030598;28;20499;-69
2023/08/13 06:06:31;;;;;;;9.17;6.83;;;18.60;99.90;;;;;;5029972;28;20453;-69
2023/08/13 06:08:58;;;;;;;11.10;7.90;;;18.60;99.90;;;;;;5029922;28;20476;-69
2023/08/13 06:11:25;;;;;;;7.47;5.70;;;18.60;99.90;;;;;;5029753;28;21005;-69
2023/08/13 06:13:52;;;;;;;17.53;8.30;;;18.60;99.90;;;;;;5030104;28;20957;-69
2023/08/13 06:16:19;;;;;;;13.40;7.90;;;18.70;99.90;;;;;;5029968;28;20518;-69
2023/08/13 06:18:46;;;;;;;17.33;8.87;;;18.90;99.90;;;;;;5029865;28;20477;-70
2023/08/13 06:21:13;;;;;;;11.70;8.33;;;18.70;99.90;;;;;;5029804;28;20446;-69
2023/08/13 06:23:39;;;;;;;15.20;9.40;;;18.50;99.90;;;;;;5029831;28;20492;-69
2023/08/13 06:26:06;;;;;;;12.70;8.93;;;18.40;99.90;;;;;;5022283;28;20505;-70
2023/08/13 06:28:33;;;;;;;10.53;7.93;;;18.40;99.90;;;;;;5030457;28;20459;-70
2023/08/13 06:31:01;;;;;;;13.30;6.57;;;18.50;99.90;;;;;;5029131;28;20579;-70
2023/08/13 06:33:28;;;;;;;7.97;5.50;;;18.60;99.90;;;;;;5030180;28;20461;-70
2023/08/13 06:35:55;;;;;;;10.00;6.50;;;18.70;99.90;;;;;;5028460;28;20454;-70
2023/08/13 06:38:23;;;;;;;10.77;6.73;;;18.90;99.90;;;;;;5028871;28;20954;-70
2023/08/13 06:40:50;;;;;;;14.57;6.60;;;19.00;99.90;;;;;;5029947;28;20874;-70
2023/08/13 06:43:17;;;;;;;10.40;7.43;;;19.20;99.90;;;;;;5030394;28;20457;-70
2023/08/13 06:45:44;;;;;;;17.43;7.00;;;19.40;99.90;;;;;;5029262;28;20449;-70
2023/08/13 06:48:11;;;;;;;11.83;6.70;;;19.60;99.90;;;;;;5029005;28;20466;-71
2023/08/13 06:50:38;;;;;;;9.63;7.60;;;19.70;99.90;;;;;;5029224;28;20539;-70
2023/08/13 06:53:05;;;;;;;10.57;7.43;;;19.80;99.90;;;;;;5029898;28;20460;-70
2023/08/13 06:55:32;;;;;;;8.93;6.80;;;19.90;99.90;;;;;;5030087;28;20618;-70
2023/08/13 06:57:58;;;;;;;7.53;5.90;;;19.90;99.90;;;;;;5030040;28;20584;-70
2023/08/13 07:00:25;;;;;;;6.13;5.20;;;19.90;99.90;;;;;;5029110;28;20584;-70
2023/08/13 07:02:52;;;;;;;6.77;5.50;;;20.00;99.90;;;;;;5029919;28;20492;-70
2023/08/13 07:05:20;;;;;;;5.80;4.80;;;20.10;99.90;;;;;;5029372;28;20826;-70
2023/08/13 07:07:48;;;;;;;9.53;5.30;;;20.30;99.90;;;;;;5029452;28;20464;-70
2023/08/13 07:10:15;;;;;;;7.43;5.00;;;20.40;99.90;;;;;;5029741;28;20544;-70
2023/08/13 07:12:42;;;;;;;4.90;4.40;;;20.60;99.90;;;;;;5030471;28;20944;-69
2023/08/13 07:15:09;;;;;;;7.03;5.23;;;20.60;99.90;;;;;;5032695;28;20461;-69
2023/08/13 07:17:36;;;;;;;8.23;4.63;;;20.60;99.90;;;;;;5025565;28;20466;-70
2023/08/13 07:20:08;;;;;;;8.13;3.93;;;20.60;99.90;;;;;;5026669;28;20531;-70
2023/08/13 07:22:37;;;;;;;5.17;4.67;;;20.60;99.90;;;;;;5033436;28;20548;-69
2023/08/13 07:25:05;;;;;;;5.30;4.70;;;20.70;99.90;;;;;;5033227;28;20488;-69
2023/08/13 07:27:32;;;;;;;7.00;4.60;;;20.80;99.90;;;;;;5032559;28;20461;-69
2023/08/13 07:29:58;;;;;;;4.77;4.30;;;21.00;99.90;;;;;;5033035;28;20492;-69
2023/08/13 07:32:25;;;;;;;6.10;4.83;;;21.10;99.90;;;;;;5032815;28;20465;-69
2023/08/13 07:34:52;;;;;;;8.50;4.90;;;21.40;99.90;;;;;;5033309;28;20945;-71
2023/08/13 07:37:18;;;;;;;11.63;4.33;;;21.50;99.90;;;;;;5032551;28;20449;-70
2023/08/13 07:39:46;;;;;;;6.47;4.27;;;21.60;99.90;;;;;;5031592;28;20473;-70
2023/08/13 07:42:14;;;;;;;9.10;4.00;;;21.50;99.90;;;;;;5032777;28;20483;-71
2023/08/13 07:44:40;;;;;;;4.70;4.00;;;21.50;99.90;;;;;;5033067;28;20465;-70
2023/08/13 07:47:07;;;;;;;4.93;4.40;;;21.60;99.90;;;;;;5032681;28;20453;-71
2023/08/13 07:49:33;;;;;;;5.10;4.07;;;21.60;99.90;;;;;;5032255;28;21198;-70
2023/08/13 07:52:00;;;;;;;7.17;4.80;;;21.60;99.90;;;;;;5033130;28;20527;-70
2023/08/13 07:54:28;;;;;;;5.23;3.57;;;21.80;99.90;;;;;;5033323;28;20477;-70
2023/08/13 07:56:56;;;;;;;5.00;4.47;;;21.80;99.90;;;;;;5032464;28;20910;-71
2023/08/13 07:59:23;;;;;;;6.43;4.57;;;22.00;99.90;;;;;;5024847;28;20489;-70
2023/08/13 08:01:50;;;;;;;7.60;4.50;;;22.10;99.90;;;;;;5031847;28;20469;-70
2023/08/13 08:04:16;;;;;;;5.70;4.60;;;22.30;99.90;;;;;;5029026;28;20453;-71
2023/08/13 08:06:43;;;;;;;6.23;4.23;;;22.60;99.90;;;;;;5029125;28;20457;-70
2023/08/13 08:09:09;;;;;;;6.37;5.07;;;22.80;99.90;;;;;;5028579;28;20485;-70
2023/08/13 08:11:36;;;;;;;12.23;5.40;;;23.10;99.90;;;;;;5029055;28;20870;-71
2023/08/13 08:14:04;;;;;;;4.77;4.20;;;23.20;99.90;;;;;;5029034;28;20507;-70
2023/08/13 08:16:31;;;;;;;6.10;4.80;;;23.40;99.90;;;;;;5028453;28;20469;-70
2023/08/13 08:18:58;;;;;;;11.37;4.07;;;23.60;99.90;;;;;;5027653;28;21288;-71
2023/08/13 08:21:24;;;;;;;6.97;4.20;;;23.90;99.90;;;;;;5028997;28;20446;-71
2023/08/13 08:23:51;;;;;;;7.30;5.20;;;24.10;99.90;;;;;;5027226;28;20488;-72
2023/08/13 08:26:18;;;;;;;5.77;5.10;;;24.10;99.90;;;;;;5028688;28;20453;-72
2023/08/13 08:28:44;;;;;;;6.83;4.30;;;24.00;99.90;;;;;;5028351;28;20844;-69
2023/08/13 08:31:13;;;;;;;8.03;4.77;;;24.00;99.90;;;;;;5026722;28;20547;-69
2023/08/13 08:33:40;;;;;;;9.90;5.33;;;24.00;99.90;;;;;;5028364;28;20468;-70
2023/08/13 08:36:06;;;;;;;12.50;5.60;;;24.00;99.90;;;;;;5028025;28;20464;-69
2023/08/13 08:38:33;;;;;;;10.33;5.33;;;24.00;99.90;;;;;;5028367;28;20519;-72
2023/08/13 08:41:00;;;;;;;8.00;5.70;;;24.20;99.90;;;;;;5028283;28;20472;-70
2023/08/13 08:43:30;;;;;;;8.30;3.70;;;24.20;99.90;;;;;;5028732;28;20467;-70
2023/08/13 08:45:58;;;;;;;5.57;4.50;;;24.30;99.90;;;;;;5028402;28;20449;-70
2023/08/13 08:48:27;;;;;;;5.17;4.07;;;24.50;99.90;;;;;;5028213;28;20457;-70
2023/08/13 08:50:54;;;;;;;7.93;3.97;;;24.50;99.90;;;;;;5027803;28;21357;-69
2023/08/13 08:53:22;;;;;;;4.30;3.77;;;24.50;99.90;;;;;;5028468;28;20497;-70
2023/08/13 08:55:49;;;;;;;5.83;3.80;;;24.60;99.90;;;;;;5028221;28;20453;-70
2023/08/13 08:58:16;;;;;;;5.40;3.50;;;24.60;99.90;;;;;;5028282;28;20461;-70
2023/08/13 09:00:43;;;;;;;5.67;3.83;;;24.70;99.90;;;;;;5027446;28;20449;-70
2023/08/13 09:03:10;;;;;;;3.80;2.90;;;24.70;99.90;;;;;;5028287;28;20465;-71
2023/08/13 09:05:38;;;;;;;6.10;3.43;;;24.50;99.90;;;;;;5028277;28;20457;-69
2023/08/13 09:08:10;;;;;;;3.40;2.80;;;24.30;99.90;;;;;;5027983;28;20449;-69
2023/08/13 09:10:37;;;;;;;3.60;3.30;;;24.00;99.90;;;;;;5028160;28;20519;-70
2023/08/13 09:13:03;;;;;;;10.30;3.80;;;24.00;99.90;;;;;;5027862;28;21017;-71
2023/08/13 09:15:30;;;;;;;2.77;2.57;;;24.20;99.90;;;;;;5028266;28;20454;-70
2023/08/13 09:17:59;;;;;;;8.00;2.70;;;24.20;99.90;;;;;;5027817;28;20839;-71
2023/08/13 09:20:26;;;;;;;3.37;2.60;;;24.30;99.90;;;;;;5027391;28;20473;-70
2023/08/13 09:22:54;;;;;;;4.57;3.30;;;24.30;99.90;;;;;;5027841;28;20458;-69
2023/08/13 09:25:21;;;;;;;2.83;2.63;;;24.30;99.90;;;;;;5027881;28;20483;-69
2023/08/13 09:27:47;;;;;;;5.30;3.03;;;24.20;99.90;;;;;;5027653;28;20463;-69
2023/08/13 09:30:21;;;;;;;3.10;2.80;;;24.20;99.90;;;;;;5027325;28;20477;-70
2023/08/13 09:32:48;;;;;;;5.50;2.97;;;24.20;99.90;;;;;;5027188;28;20458;-69
2023/08/13 09:35:14;;;;;;;5.80;2.73;;;24.10;99.90;;;;;;5027247;28;20504;-69
2023/08/13 09:37:41;;;;;;;4.07;2.33;;;24.20;99.90;;;;;;5027573;28;20457;-69
2023/08/13 09:40:10;;;;;;;5.87;2.63;;;24.40;99.90;;;;;;5026885;28;20519;-69
2023/08/13 09:42:37;;;;;;;3.97;2.63;;;24.50;99.90;;;;;;5027324;28;20457;-69
2023/08/13 09:45:06;;;;;;;4.97;2.13;;;24.70;99.90;;;;;;5027475;28;20604;-70
2023/08/13 09:47:36;;;;;;;4.40;2.33;;;24.80;99.90;;;;;;5027183;28;20731;-70
2023/08/13 09:50:03;;;;;;;4.77;2.13;;;25.10;99.90;;;;;;5026021;28;20481;-70
2023/08/13 09:52:31;;;;;;;8.40;2.43;;;25.20;99.90;;;;;;5027628;28;20511;-69
2023/08/13 09:55:03;;;;;;;4.00;2.20;;;25.20;99.90;;;;;;5027531;28;20588;-69
2023/08/13 09:57:33;;;;;;;2.90;2.70;;;25.10;99.90;;;;;;5026772;28;21008;-70
2023/08/13 10:00:00;;;;;;;2.43;2.23;;;25.20;99.90;;;;;;5026663;28;20487;-69
2023/08/13 10:02:29;;;;;;;2.30;2.10;;;25.20;99.90;;;;;;5026622;28;20453;-69
2023/08/13 10:04:57;;;;;;;6.20;2.10;;;25.20;99.90;;;;;;5027271;28;20480;-69
2023/08/13 10:07:25;;;;;;;3.07;2.10;;;25.40;99.90;;;;;;5027196;28;20453;-69
2023/08/13 10:09:52;;;;;;;4.43;2.20;;;25.60;99.90;;;;;;5026257;28;20556;-69
2023/08/13 10:12:19;;;;;;;4.70;2.53;;;25.70;99.90;;;;;;5026539;28;20484;-69
2023/08/13 10:14:49;;;;;;;4.50;2.10;;;25.80;99.90;;;;;;5026348;28;20458;-70
2023/08/13 10:17:18;;;;;;;6.03;2.30;;;25.90;99.90;;;;;;5026429;28;20465;-70
2023/08/13 10:19:49;;;;;;;5.93;1.93;;;25.80;99.90;;;;;;5026699;28;20469;-69
2023/08/13 10:22:24;;;;;;;5.63;2.70;;;25.80;99.90;;;;;;5026808;28;20952;-69
2023/08/13 10:24:50;;;;;;;7.57;2.30;;;25.60;99.90;;;;;;5026520;28;20506;-69
2023/08/13 10:27:22;;;;;;;2.47;2.00;;;25.60;99.90;;;;;;5026571;28;20462;-69
2023/08/13 10:29:50;;;;;;;4.60;2.13;;;25.70;99.90;;;;;;5026821;28;20485;-69
2023/08/13 10:32:17;;;;;;;3.50;1.90;;;25.70;99.90;;;;;;5026179;28;20492;-73
2023/08/13 10:34:46;;;;;;;4.23;2.10;;;25.70;99.90;;;;;;5023544;28;20504;-72
2023/08/13 10:37:17;;;;;;;7.40;2.10;;;25.60;99.90;;;;;;5025129;28;20454;-74
2023/08/13 10:39:45;;;;;;;9.83;2.27;;;25.50;99.90;;;;;;5024642;28;20473;-75
2023/08/13 10:42:45;;;;;;;5.43;2.13;;;25.40;99.90;;;;;;5026752;28;20822;-75
2023/08/13 10:45:15;;;;;;;3.83;2.10;;;25.30;99.90;;;;;;4999064;28;20454;-76
2023/08/13 10:47:46;;;;;;;3.83;2.10;;;25.30;99.90;;;;;;5027826;28;20456;-75
2023/08/13 10:50:31;;;;;;;9.47;2.50;;;25.30;99.90;;;;;;5027954;28;20500;-77
2023/08/13 10:53:07;;;;;;;3.77;2.27;;;25.20;99.90;;;;;;5027621;28;20461;-75
2023/08/13 10:55:36;;;;;;;3.87;2.17;;;25.30;99.90;;;;;;5030023;28;20456;-74
2023/08/13 10:58:04;;;;;;;5.80;2.60;;;25.20;99.90;;;;;;5029274;28;20457;-70
2023/08/13 11:00:41;;;;;;;3.70;2.13;;;25.20;99.90;;;;;;5027760;28;20481;-70
2023/08/13 11:03:18;;;;;;;5.53;2.17;;;25.00;99.90;;;;;;5029905;28;20467;-72
2023/08/13 11:05:45;;;;;;;5.00;2.37;;;25.10;99.90;;;;;;5029966;28;20524;-66
2023/08/13 11:08:16;;;;;;;4.50;2.00;;;25.20;99.90;;;;;;5030595;28;20563;-67
2023/08/13 11:10:43;;;;;;;6.23;2.87;;;25.30;99.90;;;;;;5032297;28;20459;-67
2023/08/13 11:13:12;;;;;;;3.10;2.00;;;25.40;99.90;;;;;;5033537;28;20548;-69
2023/08/13 11:15:41;;;;;;;4.47;2.10;;;25.30;99.90;;;;;;5033182;28;20452;-70
2023/08/13 11:18:08;;;;;;;3.67;2.23;;;25.20;99.90;;;;;;5032790;28;20460;-70
2023/08/13 11:20:34;;;;;;;2.57;1.90;;;25.20;99.90;;;;;;5032457;28;20534;-69
2023/08/13 11:23:04;;;;;;;6.43;2.20;;;25.40;99.90;;;;;;5032151;28;20849;-69
2023/08/13 11:25:31;;;;;;;6.13;2.23;;;25.80;99.90;;;;;;5033495;28;20462;-70
2023/08/13 11:27:59;;;;;;;4.57;1.90;;;25.90;99.90;;;;;;5032640;28;20461;-70
2023/08/13 11:30:26;;;;;;;9.40;2.23;;;25.90;99.90;;;;;;5033065;28;20539;-69
2023/08/13 11:32:54;;;;;;;3.30;2.20;;;25.70;99.90;;;;;;5032944;28;20845;-69
2023/08/13 11:35:21;;;;;;;4.00;2.30;;;25.70;99.90;;;;;;5033298;28;20500;-70
2023/08/13 11:37:47;;;;;;;5.17;2.33;;;25.70;99.90;;;;;;5033512;28;20509;-67
2023/08/13 11:40:15;;;;;;;4.30;2.20;;;25.50;99.90;;;;;;5032404;28;21299;-68
2023/08/13 11:42:52;;;;;;;3.10;2.07;;;25.50;99.90;;;;;;5033391;28;20507;-67
2023/08/13 11:45:21;;;;;;;3.83;1.93;;;25.60;99.90;;;;;;5033087;28;20453;-67
2023/08/13 11:47:47;;;;;;;3.17;2.10;;;25.50;99.90;;;;;;5032941;28;20975;-67
2023/08/13 11:50:20;;;;;;;8.70;2.40;;;25.60;99.90;;;;;;5032507;28;20535;-69
2023/08/13 11:53:05;;;;;;;3.87;1.90;;;25.50;99.90;;;;;;5033305;28;20496;-70
2023/08/13 11:55:33;;;;;;;3.20;2.23;;;25.30;99.90;;;;;;5033181;28;20794;-67
2023/08/13 11:57:59;;;;;;;6.60;2.17;;;25.00;99.90;;;;;;5032911;28;20527;-67
2023/08/13 12:00:26;;;;;;;5.90;2.50;;;25.20;99.90;;;;;;5032703;28;20476;-67
2023/08/13 12:02:55;;;;;;;3.67;1.93;;;25.10;99.90;;;;;;5032945;28;20448;-67
2023/08/13 12:05:25;;;;;;;5.60;2.20;;;25.10;99.90;;;;;;5032127;28;20480;-67
2023/08/13 12:07:53;;;;;;;3.77;1.90;;;25.00;99.90;;;;;;5032336;28;20455;-68
2023/08/13 12:10:20;;;;;;;2.90;1.90;;;25.00;99.90;;;;;;5032585;28;20910;-68
2023/08/13 12:12:46;;;;;;;6.13;2.10;;;25.10;99.90;;;;;;5032617;28;20485;-67
2023/08/13 12:15:13;;;;;;;3.90;2.50;;;25.00;99.90;;;;;;5029450;28;20893;-68
2023/08/13 12:17:40;;;;;;;5.37;2.13;;;25.00;99.90;;;;;;5031931;28;20536;-69
2023/08/13 12:20:10;;;;;;;4.70;2.37;;;25.20;99.90;;;;;;5031056;28;20603;-68
2023/08/13 12:22:38;;;;;;;3.53;2.40;;;25.10;99.90;;;;;;5032581;28;20452;-68
2023/08/13 12:25:06;;;;;;;4.40;2.40;;;25.30;99.90;;;;;;5032554;28;20499;-68
2023/08/13 12:27:33;;;;;;;4.90;2.27;;;25.20;99.90;;;;;;5032328;28;20564;-69
2023/08/13 12:30:00;;;;;;;4.93;2.47;;;25.30;99.90;;;;;;5031513;28;20563;-69
2023/08/13 12:32:26;;;;;;;5.80;2.43;;;25.40;99.90;;;;;;5031515;28;20490;-68
2023/08/13 12:34:53;;;;;;;3.60;2.10;;;25.50;99.90;;;;;;5032133;28;20450;-68
2023/08/13 12:37:20;;;;;;;8.23;2.10;;;25.60;99.90;;;;;;5032455;28;20519;-68
2023/08/13 12:39:48;;;;;;;5.23;2.90;;;25.50;99.90;;;;;;5031211;28;20520;-69
2023/08/13 12:42:15;;;;;;;4.23;2.20;;;25.40;99.90;;;;;;5024846;28;20464;-69
2023/08/13 12:44:41;;;;;;;4.27;2.40;;;25.30;99.90;;;;;;5032143;28;20480;-68
2023/08/13 12:47:09;;;;;;;4.60;2.43;;;25.30;99.90;;;;;;5031438;28;20445;-68